createdAt,value
2023-02-07T00:00:51.993Z,62.83
2023-02-07T00:04:12.162Z,62.86
2023-02-07T00:07:15.324Z,62.92
2023-02-07T00:10:18.562Z,62.95
2023-02-07T00:13:21.760Z,63.02
2023-02-07T00:16:26.315Z,63.01
2023-02-07T00:19:29.550Z,63.03
2023-02-07T00:22:32.970Z,63.05
2023-02-07T00:25:36.445Z,63.02
2023-02-07T00:28:39.852Z,62.99
2023-02-07T00:31:43.058Z,62.91
2023-02-07T00:34:47.750Z,62.83
2023-02-07T00:37:51.173Z,62.81
2023-02-07T00:40:54.470Z,62.88
2023-02-07T00:43:57.888Z,62.87
2023-02-07T00:47:01.456Z,62.78
2023-02-07T00:50:04.957Z,62.75
2023-02-07T00:53:08.153Z,62.84
2023-02-07T00:56:12.114Z,62.78
2023-02-07T00:59:15.329Z,62.75
2023-02-07T01:02:18.501Z,62.77
2023-02-07T01:05:21.687Z,62.83
2023-02-07T01:08:24.836Z,62.85
2023-02-07T01:11:29.446Z,62.87
2023-02-07T01:14:32.856Z,62.84
2023-02-07T01:17:36.020Z,62.78
2023-02-07T01:20:39.253Z,62.78
2023-02-07T01:23:42.572Z,62.78
2023-02-07T01:26:45.821Z,62.81
2023-02-07T01:29:51.278Z,62.86
2023-02-07T01:32:54.498Z,62.92
2023-02-07T01:35:57.891Z,62.98
2023-02-07T01:39:01.347Z,62.92
2023-02-07T01:42:04.760Z,62.85
2023-02-07T01:45:34.455Z,62.92
2023-02-07T01:48:37.677Z,62.97
2023-02-07T01:51:45.910Z,63.02
2023-02-07T01:54:53.892Z,62.99
2023-02-07T01:57:57.736Z,63.03
2023-02-07T02:01:07.643Z,63.07
2023-02-07T02:04:11.530Z,63.09
2023-02-07T02:07:16.278Z,63.09
2023-02-07T02:10:24.453Z,63.02
2023-02-07T02:13:49.471Z,63.02
2023-02-07T02:17:10.099Z,63.01
2023-02-07T02:20:50.474Z,63.04
2023-02-07T02:24:31.616Z,63.06
2023-02-07T02:27:48.706Z,63.00
2023-02-07T02:31:07.021Z,62.98
2023-02-07T02:34:34.437Z,62.98
2023-02-07T02:38:00.557Z,62.96
2023-02-07T02:41:15.661Z,63.03
2023-02-07T02:44:32.221Z,63.06
2023-02-07T02:47:37.080Z,63.08
2023-02-07T02:50:46.998Z,63.07
2023-02-07T02:53:55.583Z,63.12
2023-02-07T02:57:18.208Z,63.16
2023-02-07T03:00:30.211Z,63.17
2023-02-07T03:03:52.523Z,63.12
2023-02-07T03:07:22.056Z,63.11
2023-02-07T03:10:48.112Z,63.13
2023-02-07T03:13:53.975Z,63.16
2023-02-07T03:17:12.636Z,63.09
2023-02-07T03:20:40.804Z,63.11
2023-02-07T03:23:46.458Z,63.16
2023-02-07T03:26:54.954Z,63.15
2023-02-07T03:30:02.271Z,63.18
2023-02-07T03:33:11.786Z,63.20
2023-02-07T03:36:29.070Z,63.21
2023-02-07T03:39:33.353Z,63.27
2023-02-07T03:42:36.581Z,63.26
2023-02-07T03:45:40.535Z,63.24
2023-02-07T03:48:43.753Z,63.22
2023-02-07T03:51:48.231Z,63.23
2023-02-07T03:54:51.404Z,63.25
2023-02-07T03:57:55.058Z,63.26
2023-02-07T04:00:58.502Z,63.30
2023-02-07T04:04:02.038Z,63.31
2023-02-07T04:07:05.349Z,63.34
2023-02-07T04:10:10.296Z,63.32
2023-02-07T04:13:13.532Z,63.30
2023-02-07T04:16:17.853Z,63.32
2023-02-07T04:19:21.762Z,63.33
2023-02-07T04:22:25.035Z,63.39
2023-02-07T04:25:28.331Z,63.43
2023-02-07T04:28:31.922Z,63.43
2023-02-07T04:31:35.254Z,63.46
2023-02-07T04:34:38.508Z,63.49
2023-02-07T04:37:41.689Z,63.51
2023-02-07T04:40:44.915Z,63.52
2023-02-07T04:43:48.086Z,63.52
2023-02-07T04:46:51.659Z,63.52
2023-02-07T04:49:54.926Z,63.52
2023-02-07T04:52:58.177Z,63.57
2023-02-07T04:56:01.534Z,63.65
2023-02-07T04:59:04.688Z,63.72
2023-02-07T05:02:07.924Z,63.80
2023-02-07T05:05:11.119Z,63.91
2023-02-07T05:08:14.655Z,64.05
2023-02-07T05:11:18.599Z,64.16
2023-02-07T05:14:21.876Z,64.28
2023-02-07T05:17:25.174Z,64.46
2023-02-07T05:20:28.871Z,64.54
2023-02-07T05:23:32.106Z,64.65
2023-02-07T05:26:35.323Z,64.85
2023-02-07T05:29:38.567Z,65.04
2023-02-07T05:33:00.398Z,65.25
2023-02-07T05:36:05.113Z,65.39
2023-02-07T05:39:08.332Z,65.54
2023-02-07T05:42:11.520Z,65.66
2023-02-07T05:45:14.853Z,65.85
2023-02-07T05:48:18.146Z,65.93
2023-02-07T05:51:21.388Z,66.05
2023-02-07T05:54:24.588Z,66.20
2023-02-07T05:57:27.964Z,66.38
2023-02-07T06:00:31.338Z,66.57
2023-02-07T06:03:34.620Z,66.77
2023-02-07T06:06:37.851Z,67.02
2023-02-07T06:09:41.171Z,67.14
2023-02-07T06:12:44.374Z,67.27
2023-02-07T06:15:48.214Z,67.38
2023-02-07T06:18:51.465Z,67.50
2023-02-07T06:21:54.694Z,67.67
2023-02-07T06:24:57.948Z,67.78
2023-02-07T06:28:01.313Z,67.89
2023-02-07T06:31:05.233Z,68.09
2023-02-07T06:34:08.582Z,68.21
2023-02-07T06:37:12.427Z,68.39
2023-02-07T06:40:15.721Z,68.48
2023-02-07T06:43:19.050Z,68.58
2023-02-07T06:46:22.332Z,68.65
2023-02-07T06:49:25.568Z,68.78
2023-02-07T06:52:28.898Z,68.95
2023-02-07T06:55:36.472Z,69.16
2023-02-07T06:58:39.974Z,69.28
2023-02-07T07:01:43.411Z,69.46
2023-02-07T07:04:46.911Z,69.61
2023-02-07T07:07:51.654Z,69.71
2023-02-07T07:10:56.848Z,69.82
2023-02-07T07:14:00.701Z,69.91
2023-02-07T07:17:04.100Z,70.06
2023-02-07T07:20:08.219Z,70.18
2023-02-07T07:23:11.665Z,70.29
2023-02-07T07:26:15.126Z,70.39
2023-02-07T07:29:19.642Z,70.47
2023-02-07T07:32:33.691Z,70.56
2023-02-07T07:35:38.356Z,70.72
2023-02-07T07:38:44.641Z,70.85
2023-02-07T07:41:50.879Z,70.96
2023-02-07T07:45:04.823Z,71.06
2023-02-07T07:48:08.165Z,71.14
2023-02-07T07:51:11.473Z,71.21
2023-02-07T07:54:14.756Z,71.31
2023-02-07T07:57:20.347Z,71.44
2023-02-07T08:00:24.397Z,71.52
2023-02-07T08:03:27.949Z,71.64
2023-02-07T08:06:32.206Z,71.74
2023-02-07T08:09:35.518Z,71.86
2023-02-07T08:12:38.843Z,71.94
2023-02-07T08:16:05.351Z,72.00
2023-02-07T08:19:08.746Z,72.03
2023-02-07T08:22:14.419Z,71.91
2023-02-07T08:25:17.884Z,72.02
2023-02-07T08:28:21.866Z,72.08
2023-02-07T08:31:25.295Z,72.06
2023-02-07T08:34:29.101Z,71.98
2023-02-07T08:37:32.963Z,72.01
2023-02-07T08:40:37.226Z,71.91
2023-02-07T08:43:41.944Z,71.94
2023-02-07T08:46:45.861Z,71.97
2023-02-07T08:49:49.267Z,72.03
2023-02-07T08:52:52.630Z,72.11
2023-02-07T08:55:55.914Z,72.14
2023-02-07T08:58:59.271Z,72.13
2023-02-07T09:02:03.212Z,72.16
2023-02-07T09:05:06.966Z,72.22
2023-02-07T09:08:10.496Z,72.33
2023-02-07T09:11:13.861Z,72.33
2023-02-07T09:14:17.170Z,72.33
2023-02-07T09:17:20.584Z,72.37
2023-02-07T09:20:24.346Z,72.46
2023-02-07T09:23:27.746Z,72.51
2023-02-07T09:26:33.346Z,72.47
2023-02-07T09:29:36.736Z,72.53
2023-02-07T09:32:40.041Z,72.47
2023-02-07T09:35:46.537Z,72.37
2023-02-07T09:38:50.221Z,72.42
2023-02-07T09:42:05.729Z,72.39
2023-02-07T09:45:14.242Z,72.16
2023-02-07T09:48:22.965Z,72.20
2023-02-07T09:51:27.656Z,72.14
2023-02-07T09:54:39.676Z,72.18
2023-02-07T09:57:49.117Z,72.32
2023-02-07T10:01:06.777Z,72.45
2023-02-07T10:04:21.032Z,72.31
2023-02-07T10:07:24.505Z,72.31
2023-02-07T10:10:43.012Z,72.26
2023-02-07T10:14:24.388Z,72.22
2023-02-07T10:17:50.787Z,72.33
2023-02-07T10:21:20.604Z,72.26
2023-02-07T10:24:23.944Z,72.40
2023-02-07T10:27:35.734Z,72.31
2023-02-07T10:30:41.943Z,72.27
2023-02-07T10:34:18.898Z,72.34
2023-02-07T10:37:25.059Z,72.36
2023-02-07T10:40:36.691Z,72.41
2023-02-07T10:43:43.847Z,72.51
2023-02-07T10:46:55.001Z,72.58
2023-02-07T10:50:00.848Z,72.60
2023-02-07T10:53:04.354Z,72.54
2023-02-07T10:56:16.618Z,72.61
2023-02-07T10:59:39.141Z,72.67
2023-02-07T11:02:54.771Z,72.65
2023-02-07T11:05:59.718Z,72.70
2023-02-07T11:09:24.728Z,72.77
2023-02-07T11:12:28.092Z,72.78
2023-02-07T11:15:37.543Z,72.76
2023-02-07T11:18:46.855Z,72.71
2023-02-07T11:21:53.127Z,72.68
2023-02-07T11:25:06.248Z,72.71
2023-02-07T11:28:31.182Z,72.83
2023-02-07T11:31:37.275Z,72.86
2023-02-07T11:34:47.049Z,72.97
2023-02-07T11:38:06.050Z,73.01
2023-02-07T11:41:17.861Z,73.04
2023-02-07T11:44:24.978Z,73.19
2023-02-07T11:47:31.139Z,73.22
2023-02-07T11:50:41.111Z,73.27
2023-02-07T11:53:56.427Z,73.26
2023-02-07T11:57:05.460Z,73.29
2023-02-07T12:00:16.826Z,73.34
2023-02-07T12:03:30.332Z,73.33
2023-02-07T12:06:43.725Z,73.39
2023-02-07T12:09:52.009Z,73.35
2023-02-07T12:13:03.348Z,73.37
2023-02-07T12:16:32.985Z,73.44
2023-02-07T12:19:46.321Z,73.46
2023-02-07T12:23:27.955Z,73.53
2023-02-07T12:26:37.940Z,73.62
2023-02-07T12:30:04.393Z,73.58
2023-02-07T12:33:18.277Z,73.58
2023-02-07T12:36:29.917Z,73.51
2023-02-07T12:40:12.120Z,73.46
2023-02-07T12:43:24.196Z,73.38
2023-02-07T12:47:11.693Z,73.18
2023-02-07T12:50:34.261Z,73.09
2023-02-07T12:54:16.007Z,73.19
2023-02-07T12:57:37.814Z,73.29
2023-02-07T13:00:52.319Z,73.31
2023-02-07T13:04:16.243Z,73.16
2023-02-07T13:07:42.092Z,73.20
2023-02-07T13:11:01.605Z,73.27
2023-02-07T13:14:19.600Z,73.31
2023-02-07T13:17:45.831Z,73.14
2023-02-07T13:21:01.665Z,73.14
2023-02-07T13:24:08.502Z,73.24
2023-02-07T13:27:18.111Z,73.29
2023-02-07T13:30:22.376Z,73.30
2023-02-07T13:33:44.939Z,73.24
2023-02-07T13:36:49.737Z,73.26
2023-02-07T13:40:06.165Z,73.24
2023-02-07T13:43:19.899Z,73.27
2023-02-07T13:46:44.555Z,73.36
2023-02-07T13:50:17.316Z,73.46
2023-02-07T13:53:46.533Z,73.50
2023-02-07T13:57:16.316Z,73.43
2023-02-07T14:00:23.779Z,73.40
2023-02-07T14:03:31.531Z,73.31
2023-02-07T14:06:44.335Z,73.26
2023-02-07T14:09:49.676Z,73.20
2023-02-07T14:12:53.923Z,73.24
2023-02-07T14:16:02.994Z,73.31
2023-02-07T14:19:12.676Z,73.33
2023-02-07T14:22:17.807Z,73.33
2023-02-07T14:25:36.379Z,73.39
2023-02-07T14:28:39.977Z,73.43
2023-02-07T14:32:00.964Z,73.30
2023-02-07T14:35:10.535Z,73.27
2023-02-07T14:38:27.690Z,73.29
2023-02-07T14:41:34.710Z,73.30
2023-02-07T14:44:41.828Z,73.35
2023-02-07T14:47:45.257Z,73.42
2023-02-07T14:50:53.156Z,73.49
2023-02-07T14:54:27.647Z,73.48
2023-02-07T14:57:37.882Z,73.34
2023-02-07T15:00:49.385Z,73.26
2023-02-07T15:04:05.068Z,73.17
2023-02-07T15:07:12.688Z,73.20
2023-02-07T15:10:16.306Z,73.19
2023-02-07T15:13:33.033Z,73.14
2023-02-07T15:16:38.595Z,73.20
2023-02-07T15:19:42.441Z,73.24
2023-02-07T15:22:52.729Z,73.27
2023-02-07T15:25:56.946Z,73.28
2023-02-07T15:29:06.660Z,73.30
2023-02-07T15:32:24.920Z,73.31
2023-02-07T15:35:36.606Z,73.34
2023-02-07T15:38:40.633Z,73.31
2023-02-07T15:41:49.681Z,73.33
2023-02-07T15:44:55.632Z,73.39
2023-02-07T15:48:14.836Z,73.44
2023-02-07T15:51:25.178Z,73.46
2023-02-07T15:54:28.948Z,73.48
2023-02-07T15:57:41.644Z,73.44
2023-02-07T16:00:45.129Z,73.50
2023-02-07T16:03:48.984Z,73.54
2023-02-07T16:07:07.764Z,73.49
2023-02-07T16:10:33.187Z,73.46
2023-02-07T16:13:45.090Z,73.43
2023-02-07T16:16:48.349Z,73.36
2023-02-07T16:19:52.048Z,73.29
2023-02-07T16:23:02.060Z,73.23
2023-02-07T16:26:05.734Z,73.18
2023-02-07T16:29:15.827Z,73.12
2023-02-07T16:32:20.455Z,73.04
2023-02-07T16:35:27.867Z,72.90
2023-02-07T16:38:31.893Z,72.81
2023-02-07T16:41:39.365Z,72.68
2023-02-07T16:44:45.464Z,72.58
2023-02-07T16:47:49.158Z,72.48
2023-02-07T16:50:52.590Z,72.39
2023-02-07T16:54:02.212Z,72.36
2023-02-07T16:57:05.936Z,72.37
2023-02-07T17:00:15.594Z,72.44
2023-02-07T17:03:19.408Z,72.53
2023-02-07T17:06:24.261Z,72.62
2023-02-07T17:09:28.709Z,72.79
2023-02-07T17:12:32.188Z,72.95
2023-02-07T17:15:36.096Z,73.16
2023-02-07T17:18:40.631Z,73.40
2023-02-07T17:21:45.459Z,73.60
2023-02-07T17:24:49.028Z,73.82
2023-02-07T17:27:52.467Z,74.02
2023-02-07T17:30:56.789Z,74.18
2023-02-07T17:34:00.366Z,74.30
2023-02-07T17:37:03.770Z,74.43
2023-02-07T17:40:29.859Z,74.55
2023-02-07T17:43:33.621Z,74.70
2023-02-07T17:46:37.150Z,74.78
2023-02-07T17:49:40.394Z,74.88
2023-02-07T17:52:43.930Z,74.94
2023-02-07T17:55:47.662Z,75.02
2023-02-07T17:58:52.239Z,75.07
2023-02-07T18:01:55.618Z,75.12
2023-02-07T18:04:58.983Z,75.20
2023-02-07T18:08:02.752Z,75.30
2023-02-07T18:11:07.377Z,75.36
2023-02-07T18:14:10.586Z,75.40
2023-02-07T18:17:13.861Z,75.49
2023-02-07T18:20:28.117Z,75.54
2023-02-07T18:23:31.715Z,75.73
2023-02-07T18:26:34.991Z,75.80
2023-02-07T18:29:38.196Z,75.81
2023-02-07T18:32:42.472Z,75.78
2023-02-07T18:35:46.925Z,75.78
2023-02-07T18:38:50.792Z,75.79
2023-02-07T18:41:55.270Z,75.80
2023-02-07T18:44:58.711Z,75.79
2023-02-07T18:48:02.207Z,75.79
2023-02-07T18:51:10.693Z,75.78
2023-02-07T18:54:14.415Z,75.77
2023-02-07T18:57:18.956Z,75.73
2023-02-07T19:00:22.157Z,75.73
2023-02-07T19:03:25.392Z,75.74
2023-02-07T19:06:32.017Z,75.75
2023-02-07T19:09:35.496Z,75.75
2023-02-07T19:12:39.745Z,75.73
2023-02-07T19:15:43.048Z,75.73
2023-02-07T19:18:47.559Z,75.75
2023-02-07T19:21:51.701Z,75.74
2023-02-07T19:24:55.592Z,75.75
2023-02-07T19:27:58.998Z,75.76
2023-02-07T19:31:03.786Z,75.79
2023-02-07T19:34:07.558Z,75.80
2023-02-07T19:37:10.850Z,75.81
2023-02-07T19:40:14.338Z,75.80
2023-02-07T19:43:17.709Z,75.82
2023-02-07T19:46:21.781Z,75.80
2023-02-07T19:49:26.503Z,75.82
2023-02-07T19:52:29.935Z,75.88
2023-02-07T19:55:33.301Z,75.91
2023-02-07T19:58:41.640Z,75.92
2023-02-07T20:01:44.982Z,75.94
2023-02-07T20:04:48.394Z,75.98
2023-02-07T20:07:51.730Z,75.99
2023-02-07T20:10:54.984Z,76.02
2023-02-07T20:14:03.762Z,76.05
2023-02-07T20:17:07.380Z,76.05
2023-02-07T20:20:10.841Z,76.03
2023-02-07T20:23:14.044Z,76.04
2023-02-07T20:26:23.520Z,76.04
2023-02-07T20:29:27.368Z,76.04
2023-02-07T20:32:30.608Z,76.08
2023-02-07T20:35:37.354Z,76.08
2023-02-07T20:38:40.644Z,76.10
2023-02-07T20:41:46.240Z,76.12
2023-02-07T20:44:49.893Z,76.15
2023-02-07T20:47:53.170Z,76.18
2023-02-07T20:50:57.728Z,76.18
2023-02-07T20:54:03.275Z,76.20
2023-02-07T20:57:07.305Z,76.21
2023-02-07T21:00:11.229Z,76.21
2023-02-07T21:03:14.594Z,76.25
2023-02-07T21:06:18.053Z,76.29
2023-02-07T21:09:22.143Z,76.31
2023-02-07T21:12:25.803Z,76.32
2023-02-07T21:15:32.416Z,76.34
2023-02-07T21:18:37.752Z,76.37
2023-02-07T21:21:41.664Z,76.37
2023-02-07T21:24:44.935Z,76.36
2023-02-07T21:27:48.385Z,76.38
2023-02-07T21:30:51.697Z,76.42
2023-02-07T21:33:55.045Z,76.46
2023-02-07T21:36:58.384Z,76.48
2023-02-07T21:40:01.676Z,76.45
2023-02-07T21:43:05.300Z,76.50
2023-02-07T21:46:18.119Z,76.51
2023-02-07T21:49:22.017Z,76.53
2023-02-07T21:52:25.394Z,76.54
2023-02-07T21:55:28.705Z,76.53
2023-02-07T21:58:33.524Z,76.52
2023-02-07T22:01:37.500Z,76.52
2023-02-07T22:04:42.734Z,76.53
2023-02-07T22:07:46.396Z,76.56
2023-02-07T22:10:49.842Z,76.57
2023-02-07T22:13:53.787Z,76.54
2023-02-07T22:16:58.086Z,76.54
2023-02-07T22:20:01.763Z,76.56
2023-02-07T22:23:05.672Z,76.56
2023-02-07T22:26:12.112Z,76.59
2023-02-07T22:29:15.409Z,76.61
2023-02-07T22:32:20.168Z,76.66
2023-02-07T22:35:23.674Z,76.69
2023-02-07T22:38:27.972Z,76.69
2023-02-07T22:41:32.190Z,76.71
2023-02-07T22:44:35.588Z,76.72
2023-02-07T22:47:39.228Z,76.74
2023-02-07T22:50:43.397Z,76.76
2023-02-07T22:53:47.558Z,76.75
2023-02-07T22:56:50.807Z,76.78
2023-02-07T22:59:54.693Z,76.82
2023-02-07T23:02:58.057Z,76.87
2023-02-07T23:06:05.728Z,76.91
2023-02-07T23:09:09.453Z,76.91
2023-02-07T23:12:12.817Z,76.93
2023-02-07T23:15:16.113Z,76.97
2023-02-07T23:18:19.897Z,76.97
2023-02-07T23:21:24.709Z,76.99
2023-02-07T23:24:28.134Z,77.00
2023-02-07T23:27:31.519Z,77.04
2023-02-07T23:30:36.318Z,77.07
2023-02-07T23:33:39.891Z,77.09
2023-02-07T23:36:43.644Z,77.11
2023-02-07T23:39:47.171Z,77.08
2023-02-07T23:42:50.573Z,77.08
2023-02-07T23:45:54.172Z,77.08
2023-02-07T23:48:57.553Z,77.06
2023-02-07T23:52:00.867Z,77.06
2023-02-07T23:55:04.776Z,77.08
2023-02-07T23:58:08.097Z,77.09
